Time;durP1;ratioP1;P1;durP2;ratioP2;P2;SDS_P1;SDS_P2;PMS_P1;PMS_P2;Temp;Humidity;BMP_temperature;BMP_pressure;BME280_temperature;BME280_humidity;BME280_pressure;Samples;Min_cycle;Max_cycle;Signal;HPM_P1;HPM_P2
2023/07/05 00:00:56;;;;;;;11.10;6.40;;;18.60;99.90;;;;;;5027072;28;20209;-80
2023/07/05 00:03:21;;;;;;;11.57;5.80;;;18.50;99.90;;;;;;5024210;28;20259;-80
2023/07/05 00:05:47;;;;;;;13.03;5.70;;;18.40;1.00;;;;;;5052262;28;20184;-80
2023/07/05 00:08:12;;;;;;;9.80;5.70;;;18.40;1.00;;;;;;5021922;28;20264;-79
2023/07/05 00:10:38;;;;;;;15.87;6.33;;;18.30;1.00;;;;;;5029204;28;20716;-80
2023/07/05 00:13:04;;;;;;;8.57;5.57;;;18.40;99.90;;;;;;5020503;28;20217;-80
2023/07/05 00:15:31;;;;;;;11.80;5.90;;;18.40;45.30;;;;;;5034787;28;20215;-78
2023/07/05 00:17:57;;;;;;;16.53;6.90;;;18.40;99.90;;;;;;5029161;28;20949;-80
2023/07/05 00:20:23;;;;;;;9.80;6.20;;;18.40;99.90;;;;;;5026678;28;20470;-80
2023/07/05 00:22:49;;;;;;;15.93;6.07;;;18.30;99.90;;;;;;5026412;28;20435;-79
2023/07/05 00:25:15;;;;;;;8.27;5.30;;;18.20;99.90;;;;;;5034561;28;20257;-79
2023/07/05 00:27:40;;;;;;;13.83;5.37;;;18.10;1.00;;;;;;5027896;28;20858;-80
2023/07/05 00:30:06;;;;;;;7.90;5.73;;;18.00;1.00;;;;;;5030827;28;20692;-80
2023/07/05 00:32:32;;;;;;;9.10;4.57;;;17.90;1.00;;;;;;5024269;28;20611;-79
2023/07/05 00:34:57;;;;;;;8.30;5.60;;;17.80;1.00;;;;;;5058008;28;20530;-80
2023/07/05 00:37:23;;;;;;;8.70;5.50;;;17.80;1.00;;;;;;5028606;28;20194;-80
2023/07/05 00:39:48;;;;;;;12.07;5.47;;;17.80;1.00;;;;;;5033411;28;20206;-80
2023/07/05 00:42:14;;;;;;;8.57;6.07;;;17.70;1.00;;;;;;5021677;28;20183;-80
2023/07/05 00:44:40;;;;;;;10.00;5.70;;;17.70;1.00;;;;;;5059796;28;20552;-80
2023/07/05 00:47:27;;;;;;;10.10;5.60;;;17.70;1.00;;;;;;5024963;28;20525;-80
2023/07/05 00:49:59;;;;;;;8.03;6.00;;;17.70;1.00;;;;;;5028082;28;20273;-79
2023/07/05 00:52:25;;;;;;;7.73;5.50;;;17.70;1.00;;;;;;5032800;28;20438;-79
2023/07/05 00:54:54;;;;;;;7.80;5.10;;;17.70;1.00;;;;;;5028141;28;20482;-80
2023/07/05 00:57:35;;;;;;;7.17;5.20;;;17.70;1.00;;;;;;5030108;28;20453;-80
2023/07/05 01:00:14;;;;;;;10.47;4.83;;;17.70;1.00;;;;;;5029146;28;20451;-80
2023/07/05 01:02:43;;;;;;;7.90;4.77;;;17.80;1.00;;;;;;5032497;28;20477;-80
2023/07/05 01:05:10;;;;;;;11.73;4.63;;;17.80;1.00;;;;;;5024734;28;20443;-80
2023/07/05 01:07:36;;;;;;;8.63;4.20;;;17.80;1.00;;;;;;5025145;28;20434;-80
2023/07/05 01:10:02;;;;;;;8.13;4.17;;;17.90;1.00;;;;;;5054818;28;20441;-80
2023/07/05 01:12:44;;;;;;;5.13;3.67;;;17.90;1.00;;;;;;5031518;28;20204;-80
2023/07/05 01:15:16;;;;;;;4.57;3.50;;;18.00;1.00;;;;;;5026233;28;20489;-80
2023/07/05 01:17:54;;;;;;;5.53;3.43;;;18.10;1.00;;;;;;5048229;28;20431;-79
2023/07/05 01:20:46;;;;;;;5.83;2.90;;;18.20;99.90;;;;;;5022073;28;20475;-79
2023/07/05 01:23:39;;;;;;;6.27;3.67;;;18.20;99.90;;;;;;5031899;28;20499;-79
2023/07/05 01:26:20;;;;;;;5.23;3.47;;;18.20;99.90;;;;;;5059404;28;20435;-79
2023/07/05 01:29:21;;;;;;;5.63;2.90;;;18.30;99.90;;;;;;5022705;28;20458;-79
2023/07/05 01:32:04;;;;;;;3.67;2.40;;;18.30;99.90;;;;;;5029563;28;20450;-79
2023/07/05 01:34:57;;;;;;;3.50;2.50;;;18.30;99.90;;;;;;5056869;28;20471;-79
2023/07/05 01:37:34;;;;;;;2.70;2.30;;;18.40;99.90;;;;;;5025704;28;20797;-79
2023/07/05 01:40:00;;;;;;;3.63;2.93;;;18.40;99.90;;;;;;5014747;28;20471;-78
2023/07/05 01:42:31;;;;;;;7.50;3.40;;;18.50;99.90;;;;;;5024336;28;20505;-80
2023/07/05 01:44:57;;;;;;;14.67;3.90;;;18.50;99.90;;;;;;5018680;28;20448;-79
2023/07/05 01:47:47;;;;;;;4.27;2.77;;;18.50;1.00;;;;;;5022678;28;20442;-79
2023/07/05 01:50:24;;;;;;;3.90;3.37;;;18.30;1.00;;;;;;5025835;28;20223;-78
2023/07/05 01:53:00;;;;;;;8.37;3.37;;;18.20;1.00;;;;;;5051499;28;21019;-79
2023/07/05 01:55:35;;;;;;;11.57;3.53;;;18.20;1.00;;;;;;5019305;28;23978;-78
2023/07/05 01:58:09;;;;;;;8.80;3.77;;;18.10;1.00;;;;;;5027122;28;20967;-79
2023/07/05 02:00:37;;;;;;;8.97;3.07;;;18.00;1.00;;;;;;5019381;28;20471;-79
2023/07/05 02:03:08;;;;;;;5.23;3.73;;;17.90;1.00;;;;;;5018902;28;20441;-79
2023/07/05 02:05:35;;;;;;;6.80;3.80;;;17.80;1.00;;;;;;5030588;28;20436;-80
2023/07/05 02:08:00;;;;;;;5.20;3.40;;;17.80;1.00;;;;;;5050893;28;20444;-77
2023/07/05 02:10:27;;;;;;;4.40;3.47;;;17.60;1.00;;;;;;5031807;28;21055;-80
2023/07/05 02:12:54;;;;;;;4.80;3.20;;;17.60;1.00;;;;;;5022954;28;20494;-78
2023/07/05 02:15:20;;;;;;;5.73;3.20;;;17.60;1.00;;;;;;5028645;28;20486;-80
2023/07/05 02:17:46;;;;;;;5.87;3.10;;;17.60;1.00;;;;;;5048616;28;20855;-79
2023/07/05 02:20:12;;;;;;;5.30;2.90;;;17.50;1.00;;;;;;5027583;28;20485;-79
2023/07/05 02:22:37;;;;;;;4.83;2.90;;;17.50;1.00;;;;;;5022978;28;20178;-80
2023/07/05 02:25:04;;;;;;;3.50;2.73;;;17.50;1.00;;;;;;5024041;28;20189;-80
2023/07/05 02:27:29;;;;;;;6.63;3.20;;;17.50;1.00;;;;;;5024800;28;20645;-78
2023/07/05 02:29:56;;;;;;;4.53;2.40;;;17.50;1.00;;;;;;5019987;28;20600;-80
2023/07/05 02:32:22;;;;;;;5.30;2.77;;;17.50;1.00;;;;;;5018651;28;20235;-79
2023/07/05 02:34:48;;;;;;;3.50;2.90;;;17.50;1.00;;;;;;5018681;28;20501;-79
2023/07/05 02:37:14;;;;;;;8.07;2.57;;;17.50;1.00;;;;;;5017702;28;20942;-79
2023/07/05 02:39:40;;;;;;;4.33;2.30;;;17.50;1.00;;;;;;5055785;28;20585;-80
2023/07/05 02:42:06;;;;;;;6.33;2.17;;;17.40;1.00;;;;;;5052391;28;20435;-78
2023/07/05 02:44:32;;;;;;;3.03;2.00;;;17.40;99.90;;;;;;5021825;28;20473;-79
2023/07/05 02:46:57;;;;;;;4.73;2.30;;;17.40;1.00;;;;;;5020514;28;20473;-78
2023/07/05 02:49:23;;;;;;;5.47;2.10;;;17.40;99.90;;;;;;5022287;28;20214;-79
2023/07/05 02:51:49;;;;;;;3.40;2.10;;;17.30;99.90;;;;;;5054146;28;20197;-79
2023/07/05 02:54:14;;;;;;;3.20;1.90;;;17.30;99.90;;;;;;5025911;28;20222;-79
2023/07/05 02:56:40;;;;;;;2.27;1.63;;;17.20;5.20;;;;;;5019474;28;20648;-79
2023/07/05 02:59:05;;;;;;;2.30;1.80;;;17.20;99.90;;;;;;5020129;28;20753;-79
2023/07/05 03:01:30;;;;;;;3.03;1.87;;;17.10;1.00;;;;;;5048557;28;20188;-78
2023/07/05 03:03:56;;;;;;;1.90;1.47;;;17.00;99.90;;;;;;5017061;28;20183;-80
2023/07/05 03:06:21;;;;;;;3.03;1.77;;;16.90;99.90;;;;;;5026190;28;20197;-80
2023/07/05 03:08:47;;;;;;;2.13;1.50;;;16.90;1.00;;;;;;5022751;28;20202;-79
2023/07/05 03:11:13;;;;;;;4.27;2.20;;;16.80;99.90;;;;;;5029255;28;20189;-80
2023/07/05 03:13:39;;;;;;;3.00;1.83;;;16.70;99.90;;;;;;5031931;28;21169;-80
2023/07/05 03:16:05;;;;;;;3.27;1.90;;;16.60;99.90;;;;;;5033896;28;20589;-79
2023/07/05 03:18:32;;;;;;;3.83;2.13;;;16.50;99.90;;;;;;5049128;28;20592;-80
2023/07/05 03:20:58;;;;;;;2.80;1.90;;;16.50;99.90;;;;;;5023209;28;20429;-80
2023/07/05 03:23:24;;;;;;;3.13;2.20;;;16.40;99.90;;;;;;5058622;28;20436;-78
2023/07/05 03:26:04;;;;;;;4.30;2.10;;;16.30;1.00;;;;;;5029005;28;20485;-80
2023/07/05 03:28:32;;;;;;;4.07;2.70;;;16.30;99.90;;;;;;5059496;28;20190;-79
2023/07/05 03:31:00;;;;;;;5.07;2.10;;;16.20;72.70;;;;;;5054721;28;20812;-80
2023/07/05 03:33:27;;;;;;;5.60;2.90;;;16.10;99.90;;;;;;5027857;28;20550;-80
2023/07/05 03:35:58;;;;;;;4.03;2.70;;;16.10;71.90;;;;;;5057112;28;20440;-78
2023/07/05 03:38:25;;;;;;;3.23;2.23;;;16.00;99.90;;;;;;5026600;28;20797;-78
2023/07/05 03:40:56;;;;;;;3.53;2.40;;;16.00;1.00;;;;;;5029041;28;20426;-79
2023/07/05 03:43:22;;;;;;;6.97;2.37;;;16.00;99.90;;;;;;5032242;28;20884;-79
2023/07/05 03:45:50;;;;;;;5.53;2.60;;;15.90;1.00;;;;;;5019092;28;20460;-79
2023/07/05 03:48:15;;;;;;;7.53;2.57;;;15.80;99.90;;;;;;5019249;28;20244;-79
2023/07/05 03:50:41;;;;;;;3.30;2.40;;;15.70;1.00;;;;;;5030863;28;20919;-79
2023/07/05 03:53:06;;;;;;;4.77;2.83;;;15.70;1.00;;;;;;5051012;28;20210;-79
2023/07/05 03:55:35;;;;;;;6.70;3.00;;;15.60;99.90;;;;;;5016927;28;20222;-79
2023/07/05 03:58:01;;;;;;;4.20;2.57;;;15.60;99.90;;;;;;5022201;28;20184;-79
2023/07/05 04:00:26;;;;;;;4.13;2.80;;;15.60;1.00;;;;;;5029939;28;21240;-80
2023/07/05 04:02:52;;;;;;;3.40;2.63;;;15.60;99.90;;;;;;5022399;28;20285;-79
2023/07/05 04:05:17;;;;;;;6.20;2.63;;;15.60;1.00;;;;;;5023364;28;20279;-78
2023/07/05 04:07:43;;;;;;;7.60;3.30;;;15.60;1.00;;;;;;5023020;28;20196;-79
2023/07/05 04:10:09;;;;;;;6.40;2.93;;;15.60;99.90;;;;;;5026899;28;20617;-78
2023/07/05 04:12:34;;;;;;;3.20;2.30;;;15.60;99.90;;;;;;5029544;28;20232;-79
2023/07/05 04:15:00;;;;;;;5.37;3.10;;;15.60;99.90;;;;;;5032372;28;20440;-79
2023/07/05 04:17:29;;;;;;;4.87;3.07;;;15.60;99.90;;;;;;5032965;28;20202;-79
2023/07/05 04:19:55;;;;;;;5.43;3.33;;;15.70;99.90;;;;;;5028683;28;20338;-78
2023/07/05 04:22:20;;;;;;;4.07;3.23;;;15.70;99.90;;;;;;5025503;28;21043;-79
2023/07/05 04:24:46;;;;;;;4.00;2.90;;;15.80;99.90;;;;;;5060494;28;20272;-79
2023/07/05 04:27:11;;;;;;;6.53;3.43;;;15.80;1.00;;;;;;5023003;28;20279;-79
2023/07/05 04:29:37;;;;;;;7.40;2.97;;;15.90;1.00;;;;;;5031451;28;20284;-79
2023/07/05 04:32:03;;;;;;;3.83;3.10;;;15.90;99.90;;;;;;5032498;28;20194;-79
2023/07/05 04:34:28;;;;;;;5.13;3.13;;;16.00;99.90;;;;;;5032202;28;20229;-79
2023/07/05 04:36:54;;;;;;;5.33;3.00;;;16.10;99.90;;;;;;5032970;28;20412;-79
2023/07/05 04:39:19;;;;;;;6.43;4.00;;;16.20;33.50;;;;;;5023971;28;20271;-79
2023/07/05 04:41:45;;;;;;;3.97;3.20;;;16.20;1.00;;;;;;5032135;28;20185;-78
2023/07/05 04:44:10;;;;;;;6.03;3.00;;;16.40;1.00;;;;;;5030173;28;20530;-79
2023/07/05 04:46:36;;;;;;;4.67;2.90;;;16.50;1.00;;;;;;5031538;28;20185;-79
2023/07/05 04:49:02;;;;;;;5.57;3.30;;;16.50;1.00;;;;;;5032019;28;20206;-79
2023/07/05 04:51:27;;;;;;;6.80;3.67;;;16.50;1.00;;;;;;5031889;28;20194;-79
2023/07/05 04:53:53;;;;;;;4.20;3.10;;;16.40;1.00;;;;;;5027380;28;20237;-79
2023/07/05 04:56:19;;;;;;;5.27;3.53;;;16.40;16.40;;;;;;5022367;28;20194;-80
2023/07/05 04:58:44;;;;;;;5.13;3.43;;;16.40;16.30;;;;;;5062018;28;20205;-79
2023/07/05 05:01:13;;;;;;;5.37;3.30;;;16.40;1.00;;;;;;5027577;28;20178;-79
2023/07/05 05:03:38;;;;;;;4.80;3.30;;;16.40;1.00;;;;;;5024957;28;20183;-78
2023/07/05 05:06:04;;;;;;;5.60;3.50;;;16.40;1.00;;;;;;5025063;28;20490;-79
2023/07/05 05:08:30;;;;;;;6.37;3.27;;;16.40;1.00;;;;;;5026490;28;20183;-79
2023/07/05 05:11:01;;;;;;;4.23;3.20;;;16.30;1.00;;;;;;5024969;28;20185;-79
2023/07/05 05:13:29;;;;;;;4.07;3.13;;;16.30;1.00;;;;;;5024061;28;20483;-78
2023/07/05 05:15:55;;;;;;;4.73;3.23;;;16.30;1.00;;;;;;5021253;28;20847;-79
2023/07/05 05:18:22;;;;;;;7.80;3.87;;;16.30;1.00;;;;;;5015180;28;20443;-77
2023/07/05 05:20:48;;;;;;;4.77;3.17;;;16.30;1.00;;;;;;5024832;28;20535;-79
2023/07/05 05:23:14;;;;;;;5.40;3.40;;;16.30;1.00;;;;;;5021729;28;20441;-79
2023/07/05 05:25:44;;;;;;;5.93;2.70;;;16.20;1.00;;;;;;5047555;28;20444;-79
2023/07/05 05:28:10;;;;;;;4.17;2.77;;;16.40;1.00;;;;;;5030497;28;20182;-79
2023/07/05 05:30:36;;;;;;;3.83;3.10;;;16.50;1.00;;;;;;5020599;28;20541;-79
2023/07/05 05:33:03;;;;;;;6.13;3.30;;;16.40;99.90;;;;;;5055829;28;20519;-79
2023/07/05 05:35:31;;;;;;;6.43;3.23;;;16.40;1.00;;;;;;5026526;28;20476;-79
2023/07/05 05:37:56;;;;;;;8.10;3.40;;;16.30;1.00;;;;;;5027225;28;20954;-78
2023/07/05 05:40:22;;;;;;;6.97;3.87;;;16.20;1.00;;;;;;5025315;28;20455;-79
2023/07/05 05:42:48;;;;;;;8.60;3.57;;;16.10;1.00;;;;;;5014775;28;20660;-77
2023/07/05 05:45:13;;;;;;;5.40;3.40;;;16.10;1.00;;;;;;5022753;28;20205;-79
2023/07/05 05:47:39;;;;;;;4.60;2.97;;;16.00;1.00;;;;;;5054161;28;20568;-78
2023/07/05 05:50:05;;;;;;;10.00;3.03;;;16.00;1.00;;;;;;5025708;28;20209;-79
2023/07/05 05:52:32;;;;;;;7.73;3.17;;;16.00;1.00;;;;;;5025669;28;20425;-79
2023/07/05 05:54:58;;;;;;;5.77;2.40;;;16.10;99.90;;;;;;5017218;28;20465;-77
2023/07/05 05:57:23;;;;;;;10.07;3.37;;;16.30;99.90;;;;;;5017319;28;20445;-79
2023/07/05 05:59:49;;;;;;;12.40;2.70;;;16.40;99.90;;;;;;5025326;28;20211;-78
2023/07/05 06:02:14;;;;;;;3.43;2.40;;;16.50;99.90;;;;;;5022211;28;20576;-76
2023/07/05 06:04:40;;;;;;;7.63;3.03;;;16.50;99.90;;;;;;5019561;28;20276;-77
2023/07/05 06:07:05;;;;;;;3.73;2.13;;;16.70;99.90;;;;;;5016161;28;20175;-78
2023/07/05 06:09:37;;;;;;;4.33;2.60;;;17.20;99.90;;;;;;5020979;28;20212;-78
2023/07/05 06:12:03;;;;;;;6.60;2.80;;;18.10;99.90;;;;;;5030459;28;20267;-78
2023/07/05 06:14:29;;;;;;;4.73;2.10;;;18.90;99.90;;;;;;5023900;28;20933;-80
2023/07/05 06:16:54;;;;;;;11.23;2.37;;;20.10;99.90;;;;;;5024397;28;20591;-78
2023/07/05 06:19:20;;;;;;;6.83;2.10;;;22.00;99.90;;;;;;5021192;28;20290;-79
2023/07/05 06:21:45;;;;;;;5.83;1.60;;;22.30;99.90;;;;;;5020811;28;20181;-79
2023/07/05 06:24:11;;;;;;;11.50;2.53;;;21.50;99.90;;;;;;5028319;28;20561;-78
2023/07/05 06:26:36;;;;;;;4.70;2.10;;;20.70;99.90;;;;;;5029762;28;20196;-79
2023/07/05 06:29:02;;;;;;;4.33;2.00;;;23.30;99.90;;;;;;5030889;28;20209;-78
2023/07/05 06:31:32;;;;;;;7.37;2.80;;;24.40;99.90;;;;;;5012729;28;20226;-79
2023/07/05 06:33:59;;;;;;;5.73;2.67;;;28.30;99.90;;;;;;5029138;28;20316;-79
2023/07/05 06:36:25;;;;;;;4.50;2.20;;;29.20;99.90;;;;;;5029828;28;20961;-80
2023/07/05 06:38:50;;;;;;;16.27;2.80;;;28.20;99.90;;;;;;5029658;28;20462;-79
2023/07/05 06:41:16;;;;;;;8.07;2.30;;;25.80;99.90;;;;;;5047006;28;20956;-78
2023/07/05 06:43:41;;;;;;;6.10;2.20;;;23.80;98.10;;;;;;5060380;28;20280;-78
2023/07/05 06:46:07;;;;;;;4.43;2.40;;;22.20;94.60;;;;;;5028700;28;20197;-79
2023/07/05 06:48:33;;;;;;;5.60;2.90;;;21.40;95.50;;;;;;5024633;28;20185;-79
2023/07/05 06:50:59;;;;;;;4.03;2.23;;;22.50;99.90;;;;;;5015238;28;20202;-79
2023/07/05 06:53:25;;;;;;;8.17;2.50;;;25.10;99.90;;;;;;5017111;28;20206;-78
2023/07/05 06:55:51;;;;;;;6.80;2.40;;;24.30;97.70;;;;;;5022743;28;20484;-78
2023/07/05 06:58:19;;;;;;;8.47;2.50;;;23.40;94.00;;;;;;5025268;28;20200;-78
2023/07/05 07:00:46;;;;;;;6.40;2.20;;;22.00;91.20;;;;;;5010913;28;20493;-78
2023/07/05 07:03:11;;;;;;;2.90;1.90;;;20.80;89.70;;;;;;5010492;28;20986;-78
2023/07/05 07:05:37;;;;;;;5.90;2.30;;;20.10;91.90;;;;;;5031447;28;20472;-78
2023/07/05 07:08:02;;;;;;;5.20;1.90;;;19.50;93.90;;;;;;5033119;28;20271;-77
2023/07/05 07:10:28;;;;;;;3.37;2.10;;;19.00;97.10;;;;;;5033153;28;20825;-77
2023/07/05 07:12:54;;;;;;;4.30;1.83;;;18.80;99.90;;;;;;5033443;28;20202;-78
2023/07/05 07:15:19;;;;;;;5.37;2.13;;;18.70;99.90;;;;;;5026706;28;20214;-78
2023/07/05 07:17:46;;;;;;;5.60;2.10;;;18.70;99.90;;;;;;5022685;28;20557;-78
2023/07/05 07:20:11;;;;;;;8.10;1.90;;;18.80;99.90;;;;;;5020717;28;20194;-77
2023/07/05 07:22:37;;;;;;;4.80;1.77;;;19.00;99.90;;;;;;5055684;28;20431;-78
2023/07/05 07:25:02;;;;;;;3.50;1.63;;;19.20;99.90;;;;;;5053239;28;20183;-79
2023/07/05 07:27:28;;;;;;;4.77;1.60;;;20.60;99.90;;;;;;5014685;28;20912;-78
2023/07/05 07:29:53;;;;;;;5.00;1.77;;;23.60;99.90;;;;;;5022525;28;20218;-79
2023/07/05 07:32:20;;;;;;;4.63;1.53;;;23.90;99.90;;;;;;5033531;28;20260;-78
2023/07/05 07:34:45;;;;;;;17.10;2.23;;;22.30;97.70;;;;;;5026136;28;20214;-78
2023/07/05 07:37:11;;;;;;;3.73;1.93;;;21.00;94.90;;;;;;5015420;28;20495;-77
2023/07/05 07:39:36;;;;;;;4.17;1.70;;;20.00;94.60;;;;;;5029722;28;20205;-79
2023/07/05 07:42:02;;;;;;;6.07;2.07;;;19.60;97.20;;;;;;5017268;28;20199;-77
2023/07/05 07:44:28;;;;;;;2.50;1.47;;;20.60;98.80;;;;;;5019519;28;20194;-79
2023/07/05 07:46:53;;;;;;;5.30;1.80;;;25.60;99.90;;;;;;5036699;28;20185;-79
2023/07/05 07:49:20;;;;;;;3.30;1.67;;;28.40;99.90;;;;;;5021818;28;20670;-79
2023/07/05 07:51:45;;;;;;;5.50;1.87;;;29.70;99.80;;;;;;5024608;28;20182;-79
2023/07/05 07:54:16;;;;;;;8.73;2.70;;;29.60;94.60;;;;;;5058148;28;20465;-79
2023/07/05 07:56:46;;;;;;;2.40;1.57;;;29.10;88.40;;;;;;5037508;28;20232;-79
2023/07/05 07:59:12;;;;;;;2.90;1.30;;;32.00;93.20;;;;;;5017710;28;20438;-79
2023/07/05 08:01:39;;;;;;;7.47;1.67;;;30.20;77.60;;;;;;5036242;28;20439;-79
2023/07/05 08:04:06;;;;;;;3.00;1.63;;;29.50;69.50;;;;;;5034751;28;20422;-80
2023/07/05 08:06:38;;;;;;;5.23;1.30;;;27.50;57.60;;;;;;5019532;28;20457;-79
2023/07/05 08:09:05;;;;;;;4.70;1.80;;;29.10;66.10;;;;;;5061240;28;20498;-78
2023/07/05 08:11:31;;;;;;;4.87;1.27;;;29.00;60.60;;;;;;5020114;28;20466;-77
2023/07/05 08:13:56;;;;;;;3.67;1.50;;;29.90;62.40;;;;;;5019487;28;21086;-78
2023/07/05 08:16:22;;;;;;;3.73;1.60;;;29.80;57.10;;;;;;5014562;28;20214;-77
2023/07/05 08:21:23;;;;;;;5.33;2.30;;;29.10;52.80;;;;;;5372027;22;20270;-82
2023/07/05 08:23:49;;;;;;;7.90;1.43;;;30.80;54.80;;;;;;4974778;28;20474;-82
2023/07/05 08:26:15;;;;;;;10.50;1.90;;;29.00;46.00;;;;;;5003081;28;20267;-82
2023/07/05 08:28:40;;;;;;;4.90;1.60;;;29.20;45.80;;;;;;4990572;28;20188;-82
2023/07/05 08:31:08;;;;;;;2.03;1.30;;;28.30;41.60;;;;;;4992015;28;21032;-80
2023/07/05 08:33:35;;;;;;;3.03;1.57;;;27.90;38.90;;;;;;4992495;28;20231;-81
2023/07/05 08:36:15;;;;;;;6.53;1.73;;;29.10;43.70;;;;;;4984692;28;20465;-80
2023/07/05 08:38:49;;;;;;;4.10;1.70;;;28.00;38.00;;;;;;4997313;28;20441;-81
2023/07/05 08:41:16;;;;;;;4.53;2.00;;;28.50;39.00;;;;;;4996589;28;20469;-81
2023/07/05 08:43:55;;;;;;;10.40;1.60;;;27.30;34.80;;;;;;4993239;28;20442;-81
2023/07/05 08:46:21;;;;;;;4.13;1.60;;;26.30;30.80;;;;;;4991552;28;20446;-81
2023/07/05 08:48:48;;;;;;;3.20;1.53;;;25.30;28.90;;;;;;4995920;28;20461;-81
2023/07/05 08:51:15;;;;;;;5.10;1.50;;;24.60;28.50;;;;;;4991854;28;20481;-80
2023/07/05 08:54:04;;;;;;;2.23;1.50;;;25.20;32.20;;;;;;5001356;28;20844;-80
2023/07/05 08:57:01;;;;;;;9.20;2.00;;;24.70;29.90;;;;;;4992811;28;20444;-81
2023/07/05 08:59:32;;;;;;;9.00;1.70;;;24.30;29.40;;;;;;4979606;28;20466;-81
2023/07/05 09:01:59;;;;;;;4.67;1.37;;;24.30;29.70;;;;;;4982117;28;20503;-82
2023/07/05 09:04:32;;;;;;;12.77;2.30;;;24.20;29.90;;;;;;5005835;28;20447;-82
2023/07/05 09:07:08;;;;;;;6.20;1.80;;;25.50;35.10;;;;;;4996357;28;20480;-82
2023/07/05 09:09:36;;;;;;;10.30;2.90;;;25.10;32.10;;;;;;4994411;28;20475;-81
2023/07/05 09:12:17;;;;;;;5.93;1.97;;;24.10;29.40;;;;;;5012308;28;20459;-82
2023/07/05 09:15:01;;;;;;;4.23;1.97;;;23.90;29.40;;;;;;4992737;28;20478;-82
2023/07/05 09:18:02;;;;;;;5.83;1.77;;;27.60;40.90;;;;;;4990191;28;20463;-82
2023/07/05 09:20:35;;;;;;;9.97;1.80;;;29.20;42.40;;;;;;5001987;28;20457;-82
2023/07/05 09:23:06;;;;;;;8.30;1.70;;;31.80;46.00;;;;;;5006751;28;20451;-83
2023/07/05 09:25:35;;;;;;;5.30;1.87;;;31.50;38.70;;;;;;4996998;28;20468;-82
2023/07/05 09:28:14;;;;;;;8.63;1.50;;;30.70;34.50;;;;;;4993641;28;20474;-81
2023/07/05 09:30:40;;;;;;;8.93;1.70;;;29.90;31.20;;;;;;4994952;28;20545;-81
2023/07/05 09:33:38;;;;;;;7.60;1.90;;;28.10;26.10;;;;;;4992674;28;20502;-80
2023/07/05 09:36:23;;;;;;;5.53;1.60;;;27.50;25.20;;;;;;4989388;28;20530;-81
2023/07/05 09:38:55;;;;;;;7.10;2.00;;;26.60;22.60;;;;;;4991162;28;20450;-81
2023/07/05 09:41:28;;;;;;;;;;;26.30;16.30;;;;;;4993860;28;20909;-85
2023/07/05 09:43:53;;;;;;;;;;;25.80;23.80;;;;;;4995703;28;20350;-84
2023/07/05 09:46:32;;;;;;;6.10;2.05;;;25.00;21.60;;;;;;4994962;28;20426;-81
2023/07/05 09:48:59;;;;;;;5.60;2.10;;;26.30;22.50;;;;;;4993300;28;20506;-83
2023/07/05 09:51:29;;;;;;;4.27;2.10;;;26.00;20.20;;;;;;4994202;28;20454;-84
2023/07/05 09:53:59;;;;;;;9.43;1.70;;;25.50;18.90;;;;;;4993622;28;20470;-84
2023/07/05 09:56:28;;;;;;;7.03;1.80;;;26.00;20.10;;;;;;4995328;28;20500;-84
2023/07/05 09:59:18;;;;;;;9.13;2.20;;;25.60;18.80;;;;;;4995915;28;20439;-84
2023/07/05 10:01:48;;;;;;;8.40;2.13;;;25.60;18.70;;;;;;4997253;28;20461;-83
2023/07/05 10:04:15;;;;;;;3.20;1.80;;;25.20;17.80;;;;;;4995422;28;20474;-85
2023/07/05 10:06:45;;;;;;;3.20;1.53;;;28.00;25.30;;;;;;4996089;28;20443;-84
2023/07/05 10:09:16;;;;;;;5.87;1.53;;;29.40;27.30;;;;;;5009694;28;20435;-84
2023/07/05 10:11:53;;;;;;;7.00;2.00;;;28.50;23.40;;;;;;4991916;28;20477;-84
2023/07/05 10:14:22;;;;;;;6.50;2.07;;;30.10;25.90;;;;;;4994564;28;21094;-83
2023/07/05 10:16:57;;;;;;;5.90;1.30;;;31.20;26.20;;;;;;4995757;28;20487;-84
2023/07/05 10:19:50;;;;;;;4.50;1.30;;;32.80;27.10;;;;;;4999213;28;20444;-84
2023/07/05 10:22:33;;;;;;;3.07;1.47;;;32.90;24.00;;;;;;5002320;28;20446;-84
2023/07/05 10:25:02;;;;;;;6.50;1.83;;;34.10;22.10;;;;;;5001747;28;20470;-84
2023/07/05 10:27:34;;;;;;;8.33;1.77;;;34.60;17.70;;;;;;4998858;28;20438;-85
2023/07/05 10:30:13;;;;;;;5.87;1.63;;;35.00;14.40;;;;;;5000495;28;20465;-84
2023/07/05 10:32:39;;;;;;;5.90;1.60;;;34.10;7.90;;;;;;4997899;28;20431;-85
2023/07/05 10:35:26;;;;;;;7.83;2.40;;;32.10;3.70;;;;;;4998163;28;20553;-84
2023/07/05 10:37:52;;;;;;;4.77;1.93;;;31.20;6.00;;;;;;4992314;28;20454;-84
2023/07/05 10:40:19;;;;;;;4.63;1.57;;;32.20;4.70;;;;;;4998308;28;20512;-82
2023/07/05 10:42:49;;;;;;;7.93;1.70;;;33.80;6.30;;;;;;4997174;28;20439;-83
2023/07/05 10:45:17;;;;;;;3.87;1.57;;;34.60;5.70;;;;;;4993921;28;20435;-84
2023/07/05 10:47:52;;;;;;;15.10;2.40;;;33.60;1.00;;;;;;4999125;28;20529;-84
2023/07/05 10:50:25;;;;;;;4.57;1.90;;;32.90;1.00;;;;;;4996585;28;20455;-83
2023/07/05 10:53:01;;;;;;;4.43;2.10;;;33.00;1.00;;;;;;5007391;28;20470;-81
2023/07/05 10:55:45;;;;;;;4.60;1.60;;;32.10;1.00;;;;;;5005283;28;20450;-83
2023/07/05 10:58:16;;;;;;;5.57;1.70;;;31.10;1.00;;;;;;5007378;28;20524;-84
2023/07/05 11:00:51;;;;;;;7.40;2.00;;;31.30;1.00;;;;;;4997936;28;20696;-83
2023/07/05 11:03:40;;;;;;;7.97;2.23;;;30.70;1.00;;;;;;5007038;28;20465;-85
2023/07/05 11:06:07;;;;;;;8.33;1.70;;;29.70;1.00;;;;;;5006712;28;20465;-82
2023/07/05 11:08:39;;;;;;;5.57;1.43;;;30.70;1.00;;;;;;5005533;28;20585;-84
2023/07/05 11:11:17;;;;;;;4.80;1.90;;;31.50;1.00;;;;;;5006338;28;20470;-84
2023/07/05 11:13:45;;;;;;;7.47;2.00;;;32.80;1.00;;;;;;4999134;28;20497;-84
2023/07/05 11:16:25;;;;;;;5.87;1.80;;;31.70;1.00;;;;;;5005759;28;20450;-84
2023/07/05 11:18:58;;;;;;;5.73;1.83;;;30.10;1.00;;;;;;5002265;28;20438;-84
2023/07/05 11:21:47;;;;;;;4.70;1.57;;;30.70;1.00;;;;;;5003124;28;20536;-84
2023/07/05 11:24:31;;;;;;;9.03;1.83;;;31.40;1.00;;;;;;5004178;28;20454;-85
2023/07/05 11:26:58;;;;;;;5.17;1.40;;;31.50;1.00;;;;;;5004826;28;20438;-84
2023/07/05 11:29:26;;;;;;;2.93;1.40;;;32.20;1.00;;;;;;5004455;28;20469;-86
2023/07/05 11:31:52;;;;;;;7.73;1.50;;;31.20;1.00;;;;;;5005353;28;20490;-83
2023/07/05 11:34:21;;;;;;;6.20;1.70;;;30.00;1.00;;;;;;4997043;28;20475;-85
2023/07/05 11:37:05;;;;;;;9.13;2.23;;;28.50;1.00;;;;;;5000639;28;20552;-83
2023/07/05 11:39:37;;;;;;;7.00;2.10;;;27.20;1.00;;;;;;5015869;28;21079;-84
2023/07/05 11:42:15;;;;;;;12.57;2.63;;;26.00;1.00;;;;;;5003630;28;20466;-84
2023/07/05 11:45:09;;;;;;;8.73;1.90;;;25.10;1.00;;;;;;5000632;28;20438;-84
2023/07/05 11:47:34;;;;;;;4.50;2.07;;;24.60;1.00;;;;;;4997671;28;20427;-84
2023/07/05 11:50:06;;;;;;;4.00;2.20;;;25.40;1.00;;;;;;5000473;28;20423;-83
2023/07/05 11:52:35;;;;;;;3.23;1.63;;;26.50;1.00;;;;;;4998266;28;20418;-83
2023/07/05 11:55:29;;;;;;;5.07;2.10;;;26.30;1.00;;;;;;4999154;28;20521;-83
2023/07/05 11:58:12;;;;;;;9.23;2.30;;;26.10;1.00;;;;;;4999530;28;20438;-84
2023/07/05 12:00:55;;;;;;;11.50;2.00;;;25.80;1.00;;;;;;4995352;28;20940;-84
2023/07/05 12:03:22;;;;;;;6.17;2.17;;;26.60;1.00;;;;;;5002181;28;20422;-83
2023/07/05 12:06:13;;;;;;;6.10;1.80;;;26.70;1.00;;;;;;4993394;28;20435;-83
2023/07/05 12:08:41;;;;;;;6.40;2.20;;;27.40;1.00;;;;;;5002657;28;20469;-84
2023/07/05 12:11:07;;;;;;;8.50;2.80;;;28.50;1.00;;;;;;5001825;28;20458;-83
2023/07/05 12:13:34;;;;;;;6.87;2.50;;;29.20;1.00;;;;;;5000793;28;20461;-83
2023/07/05 12:16:06;;;;;;;8.27;2.63;;;29.70;1.50;;;;;;4990021;28;20582;-83
2023/07/05 12:18:33;;;;;;;9.70;1.80;;;29.90;1.90;;;;;;5001589;28;20426;-83
2023/07/05 12:21:02;;;;;;;2.40;1.43;;;30.20;2.70;;;;;;5002192;28;20971;-85
2023/07/05 12:23:28;;;;;;;4.30;1.80;;;30.30;2.90;;;;;;4994525;28;20422;-83
2023/07/05 12:25:57;;;;;;;6.23;1.90;;;29.50;1.40;;;;;;5001474;28;20423;-82
2023/07/05 12:28:26;;;;;;;3.67;1.57;;;29.30;1.80;;;;;;5007569;28;20423;-82
2023/07/05 12:30:59;;;;;;;8.67;2.50;;;28.60;1.00;;;;;;5000835;28;20462;-82
2023/07/05 12:33:28;;;;;;;3.03;1.60;;;27.70;1.00;;;;;;5001245;28;20482;-82
2023/07/05 12:36:08;;;;;;;4.57;1.90;;;27.50;1.00;;;;;;4996999;28;20441;-82
2023/07/05 12:38:34;;;;;;;4.73;1.90;;;27.70;1.50;;;;;;5000012;28;20431;-82
2023/07/05 12:41:00;;;;;;;6.00;1.77;;;28.50;4.50;;;;;;4997574;28;20541;-82
2023/07/05 12:43:30;;;;;;;6.23;2.20;;;28.90;3.80;;;;;;4990943;28;20188;-83
2023/07/05 12:46:25;;;;;;;5.53;2.10;;;29.10;4.90;;;;;;4997932;28;20454;-83
2023/07/05 12:48:51;;;;;;;7.00;2.20;;;29.10;3.70;;;;;;4994097;28;20591;-82
2023/07/05 12:51:21;;;;;;;4.60;2.37;;;28.50;3.00;;;;;;4998396;28;21022;-82
2023/07/05 12:54:08;;;;;;;3.53;2.13;;;27.70;1.70;;;;;;4993642;28;20975;-82
2023/07/05 12:56:37;;;;;;;8.40;2.20;;;26.70;1.00;;;;;;4994134;28;20462;-83
2023/07/05 12:59:06;;;;;;;3.30;2.40;;;26.10;1.00;;;;;;4997750;28;20442;-82
2023/07/05 13:01:38;;;;;;;8.60;2.33;;;25.20;1.00;;;;;;4997462;28;20473;-82
2023/07/05 13:04:14;;;;;;;4.73;2.67;;;24.40;1.00;;;;;;4990383;28;20444;-82
2023/07/05 13:06:40;;;;;;;5.87;2.47;;;23.80;1.00;;;;;;4993193;28;20519;-82